METAR Formatted Surface Weather Observation
Issued by NWS

Home | Current Version | Previous Version | Text Only | Print | Product List | Glossary On
Versions: 1
460
SAUS41 KGYX 221458
MTRNKT
METAR KNKT 221454Z AUTO 36012KT 10SM OVC045 14/10 A3007 RMK AO2
SLP178 60000 T01440100 $



USA.gov is the U.S. government's official web portal to all federal, state and local government web resources and services.